createdAt,value
2019-03-24T00:00:04.083Z,114.10
2019-03-24T00:02:32.666Z,106.52
2019-03-24T00:05:01.159Z,107.95
2019-03-24T00:07:29.825Z,108.45
2019-03-24T00:09:58.321Z,105.87
2019-03-24T00:12:27.021Z,108.72
2019-03-24T00:14:55.664Z,108.17
2019-03-24T00:17:24.215Z,110.35
2019-03-24T00:19:54.561Z,110.03
2019-03-24T00:22:24.073Z,116.97
2019-03-24T00:24:52.627Z,109.25
2019-03-24T00:27:21.211Z,113.97
2019-03-24T00:29:51.353Z,112.80
2019-03-24T00:32:19.962Z,108.95
2019-03-24T00:34:48.445Z,114.55
2019-03-24T00:37:16.939Z,117.42
2019-03-24T00:39:45.519Z,110.25
2019-03-24T00:42:14.233Z,119.10
2019-03-24T00:44:42.839Z,112.35
2019-03-24T00:47:11.470Z,118.67
2019-03-24T00:49:39.952Z,121.47
2019-03-24T00:52:08.540Z,125.67
2019-03-24T00:54:37.129Z,123.95
2019-03-24T00:57:05.789Z,122.13
2019-03-24T00:59:34.349Z,119.87
2019-03-24T01:02:02.845Z,117.05
2019-03-24T01:04:31.429Z,114.72
2019-03-24T01:06:59.979Z,117.90
2019-03-24T01:09:28.647Z,124.95
2019-03-24T01:11:57.141Z,129.55
2019-03-24T01:14:25.645Z,117.15
2019-03-24T01:16:54.876Z,113.30
2019-03-24T01:19:23.512Z,118.87
2019-03-24T01:21:52.122Z,115.42
2019-03-24T01:24:20.752Z,118.22
2019-03-24T01:26:49.234Z,124.87
2019-03-24T01:29:17.912Z,122.80
2019-03-24T01:31:46.553Z,126.20
2019-03-24T01:34:15.228Z,125.25
2019-03-24T01:36:43.784Z,126.27
2019-03-24T01:39:12.365Z,122.22
2019-03-24T01:41:41.116Z,121.42
2019-03-24T01:44:09.689Z,128.97
2019-03-24T01:46:38.336Z,131.15
2019-03-24T01:49:07.155Z,129.60
2019-03-24T01:51:35.751Z,126.27
2019-03-24T01:54:04.474Z,128.87
2019-03-24T01:56:33.034Z,123.75
2019-03-24T01:59:01.627Z,119.37
2019-03-24T02:01:30.290Z,120.37
2019-03-24T02:03:58.933Z,126.67
2019-03-24T02:06:28.736Z,130.75
2019-03-24T02:08:57.373Z,125.95
2019-03-24T02:11:25.965Z,128.87
2019-03-24T02:13:54.583Z,121.10
2019-03-24T02:16:23.138Z,127.82
2019-03-24T02:18:51.847Z,130.35
2019-03-24T02:21:20.480Z,128.50
2019-03-24T02:23:49.076Z,133.35
2019-03-24T02:26:17.646Z,125.92
2019-03-24T02:28:46.276Z,124.75
2019-03-24T02:31:14.795Z,128.15
2019-03-24T02:33:43.434Z,123.00
2019-03-24T02:36:12.162Z,124.35
2019-03-24T02:38:40.694Z,130.20
2019-03-24T02:41:09.258Z,127.75
2019-03-24T02:43:37.826Z,131.20
2019-03-24T02:46:06.513Z,135.80
2019-03-24T02:48:35.203Z,121.72
2019-03-24T02:51:05.289Z,127.87
2019-03-24T02:53:33.842Z,132.60
2019-03-24T02:56:02.501Z,121.87
2019-03-24T02:58:31.145Z,124.95
2019-03-24T03:00:59.740Z,131.25
2019-03-24T03:03:28.294Z,130.25
2019-03-24T03:05:56.944Z,124.45
2019-03-24T03:08:25.551Z,125.00
2019-03-24T03:10:54.198Z,124.00
2019-03-24T03:13:22.810Z,128.07
2019-03-24T03:15:51.519Z,119.87
2019-03-24T03:18:20.152Z,126.72
2019-03-24T03:20:48.747Z,129.90
2019-03-24T03:23:17.375Z,126.95
2019-03-24T03:25:46.049Z,125.27
2019-03-24T03:28:14.647Z,139.20
2019-03-24T03:30:43.459Z,125.22
2019-03-24T03:33:12.200Z,122.67
2019-03-24T03:35:40.765Z,119.70
2019-03-24T03:38:09.433Z,123.20
2019-03-24T03:40:38.541Z,125.50
2019-03-24T03:43:07.124Z,126.97
2019-03-24T03:45:39.035Z,123.82
2019-03-24T03:48:06.203Z,118.95
2019-03-24T03:50:34.870Z,116.42
2019-03-24T03:53:03.512Z,119.90
2019-03-24T03:55:32.136Z,118.82
2019-03-24T03:58:00.648Z,129.47
2019-03-24T04:00:31.812Z,123.62
2019-03-24T04:03:00.764Z,123.47
2019-03-24T04:05:29.396Z,122.37
2019-03-24T04:07:57.966Z,118.82
2019-03-24T04:10:26.560Z,122.13
2019-03-24T04:12:55.224Z,117.57
2019-03-24T04:15:23.804Z,117.35
2019-03-24T04:17:52.377Z,117.90
2019-03-24T04:20:21.016Z,126.02
2019-03-24T04:22:49.667Z,118.10
2019-03-24T04:25:18.180Z,122.00
2019-03-24T04:27:46.770Z,129.35
2019-03-24T04:30:15.570Z,128.20
2019-03-24T04:32:44.209Z,118.17
2019-03-24T04:35:12.956Z,126.82
2019-03-24T04:37:41.522Z,121.65
2019-03-24T04:40:10.342Z,124.95
2019-03-24T04:42:38.944Z,123.13
2019-03-24T04:45:08.177Z,121.47
2019-03-24T04:47:36.849Z,115.32
2019-03-24T04:50:09.160Z,123.80
2019-03-24T04:52:37.870Z,120.72
2019-03-24T04:55:07.386Z,125.65
2019-03-24T04:57:35.992Z,126.53
2019-03-24T05:00:06.629Z,123.30
2019-03-24T05:02:35.175Z,111.75
2019-03-24T05:05:04.820Z,112.28
2019-03-24T05:07:33.515Z,125.60
2019-03-24T05:10:03.405Z,109.95
2019-03-24T05:12:31.994Z,115.90
2019-03-24T05:15:00.503Z,119.55
2019-03-24T05:17:29.089Z,106.43
2019-03-24T05:19:57.709Z,119.82
2019-03-24T05:22:26.353Z,121.87
2019-03-24T05:24:54.870Z,113.60
2019-03-24T05:27:23.427Z,112.72
2019-03-24T05:29:52.024Z,114.72
2019-03-24T05:32:20.695Z,113.50
2019-03-24T05:34:49.191Z,128.12
2019-03-24T05:37:18.552Z,117.03
2019-03-24T05:39:47.109Z,119.67
2019-03-24T05:42:15.768Z,114.52
2019-03-24T05:44:44.248Z,125.40
2019-03-24T05:47:12.860Z,108.78
2019-03-24T05:49:41.579Z,111.57
2019-03-24T05:52:10.294Z,112.12
2019-03-24T05:54:38.941Z,119.40
2019-03-24T05:57:07.438Z,111.80
2019-03-24T05:59:35.993Z,111.42
2019-03-24T06:02:04.652Z,99.55
2019-03-24T06:04:33.228Z,105.20
2019-03-24T06:07:01.831Z,118.28
2019-03-24T06:09:30.317Z,114.72
2019-03-24T06:11:58.879Z,117.93
2019-03-24T06:14:27.478Z,112.35
2019-03-24T06:16:55.978Z,101.45
2019-03-24T06:19:24.513Z,94.20
2019-03-24T06:21:53.127Z,104.00
2019-03-24T06:24:21.756Z,101.27
2019-03-24T06:26:50.348Z,100.20
2019-03-24T06:29:18.932Z,101.47
2019-03-24T06:31:47.575Z,97.78
2019-03-24T06:34:16.232Z,101.22
2019-03-24T06:36:44.816Z,100.55
2019-03-24T06:39:13.328Z,100.10
2019-03-24T06:41:41.827Z,100.05
2019-03-24T06:44:10.495Z,101.50
2019-03-24T06:46:38.986Z,95.77
2019-03-24T06:49:07.495Z,86.08
2019-03-24T06:51:36.073Z,91.12
2019-03-24T06:54:04.696Z,91.50
2019-03-24T06:56:33.273Z,90.35
2019-03-24T06:59:01.766Z,90.38
2019-03-24T07:01:30.333Z,84.97
2019-03-24T07:03:58.908Z,87.82
2019-03-24T07:06:27.465Z,84.10
2019-03-24T07:08:56.043Z,75.52
2019-03-24T07:11:24.551Z,77.78
2019-03-24T07:13:53.121Z,80.20
2019-03-24T07:16:21.789Z,79.62
2019-03-24T07:18:50.412Z,78.92
2019-03-24T07:21:19.155Z,87.20
2019-03-24T07:23:47.716Z,82.00
2019-03-24T07:26:16.275Z,85.83
2019-03-24T07:28:44.855Z,84.95
2019-03-24T07:31:13.472Z,78.30
2019-03-24T07:33:41.991Z,77.50
2019-03-24T07:36:11.234Z,80.62
2019-03-24T07:38:39.869Z,78.20
2019-03-24T07:41:08.533Z,76.97
2019-03-24T07:43:37.149Z,80.72
2019-03-24T07:46:05.893Z,74.67
2019-03-24T07:48:34.743Z,82.85
2019-03-24T07:51:17.279Z,76.47
2019-03-24T07:53:45.817Z,79.55
2019-03-24T07:56:14.383Z,71.45
2019-03-24T07:58:42.974Z,76.30
2019-03-24T08:01:11.529Z,82.15
2019-03-24T08:03:40.239Z,73.28
2019-03-24T08:06:08.833Z,79.55
2019-03-24T08:08:44.236Z,99.07
2019-03-24T08:11:07.582Z,87.60
2019-03-24T08:13:36.215Z,72.37
2019-03-24T08:16:04.960Z,71.95
2019-03-24T08:18:33.467Z,70.85
2019-03-24T08:21:02.224Z,63.90
2019-03-24T08:23:30.811Z,68.37
2019-03-24T08:25:59.580Z,73.85
2019-03-24T08:28:28.426Z,66.97
2019-03-24T08:30:57.071Z,66.35
2019-03-24T08:33:25.773Z,68.83
2019-03-24T08:35:54.402Z,62.23
2019-03-24T08:38:23.028Z,67.67
2019-03-24T08:40:51.673Z,71.47
2019-03-24T08:43:20.385Z,88.20
2019-03-24T08:45:49.027Z,78.17
2019-03-24T08:48:17.606Z,70.92
2019-03-24T08:50:46.105Z,64.85
2019-03-24T08:53:14.708Z,69.30
2019-03-24T08:55:43.327Z,63.10
2019-03-24T08:58:11.959Z,68.07
2019-03-24T09:00:40.691Z,67.15
2019-03-24T09:03:09.263Z,60.78
2019-03-24T09:05:37.907Z,69.95
2019-03-24T09:08:06.477Z,74.37
2019-03-24T09:10:35.186Z,60.03
2019-03-24T09:13:04.838Z,60.25
2019-03-24T09:15:33.481Z,60.12
2019-03-24T09:18:02.147Z,58.28
2019-03-24T09:20:41.003Z,65.85
2019-03-24T09:23:01.022Z,59.30
2019-03-24T09:25:29.675Z,60.28
2019-03-24T09:27:58.335Z,62.10
2019-03-24T09:30:28.888Z,59.58
2019-03-24T09:32:57.748Z,59.93
2019-03-24T09:35:26.478Z,61.25
2019-03-24T09:37:55.197Z,59.03
2019-03-24T09:40:29.136Z,58.08
2019-03-24T09:42:59.281Z,62.25
2019-03-24T09:45:28.396Z,61.83
2019-03-24T09:47:57.034Z,63.42
2019-03-24T09:50:25.661Z,56.88
2019-03-24T09:52:54.486Z,62.88
2019-03-24T09:55:23.227Z,62.03
2019-03-24T09:57:51.808Z,61.42
2019-03-24T10:00:20.433Z,60.70
2019-03-24T10:02:49.002Z,58.92
2019-03-24T10:05:17.724Z,59.30
2019-03-24T10:07:46.296Z,56.90
2019-03-24T10:10:15.067Z,61.63
2019-03-24T10:12:43.641Z,55.43
2019-03-24T10:15:13.825Z,58.52
2019-03-24T10:17:42.572Z,55.50
2019-03-24T10:20:11.460Z,56.37
2019-03-24T10:22:40.044Z,64.45
2019-03-24T10:25:08.683Z,59.03
2019-03-24T10:27:37.257Z,54.83
2019-03-24T10:30:08.409Z,56.30
2019-03-24T10:32:36.981Z,57.93
2019-03-24T10:35:07.017Z,56.88
2019-03-24T10:37:35.615Z,56.00
2019-03-24T10:40:07.818Z,56.42
2019-03-24T10:42:36.588Z,58.05
2019-03-24T10:45:06.306Z,59.63
2019-03-24T10:47:35.074Z,60.70
2019-03-24T10:50:05.367Z,53.98
2019-03-24T10:52:33.964Z,57.05
2019-03-24T10:55:02.672Z,53.63
2019-03-24T10:57:31.234Z,55.60
2019-03-24T10:59:59.899Z,58.68
2019-03-24T11:02:28.470Z,55.48
2019-03-24T11:04:58.233Z,57.40
2019-03-24T11:07:26.913Z,61.05
2019-03-24T11:09:55.547Z,53.90
2019-03-24T11:12:24.262Z,51.75
2019-03-24T11:14:52.887Z,48.35
2019-03-24T11:17:21.448Z,52.80
2019-03-24T11:19:49.963Z,52.67
2019-03-24T11:22:18.456Z,49.05
2019-03-24T11:24:47.082Z,48.90
2019-03-24T11:27:15.705Z,52.85
2019-03-24T11:29:44.262Z,47.30
2019-03-24T11:32:12.984Z,51.73
2019-03-24T11:34:41.468Z,50.08
2019-03-24T11:37:10.124Z,51.37
2019-03-24T11:39:38.652Z,49.20
2019-03-24T11:42:07.298Z,51.48
2019-03-24T11:44:35.872Z,53.63
2019-03-24T11:47:04.512Z,52.65
2019-03-24T11:49:33.090Z,58.90
2019-03-24T11:52:01.736Z,53.08
2019-03-24T11:54:30.312Z,51.28
2019-03-24T11:56:59.023Z,54.83
2019-03-24T11:59:27.646Z,51.58
2019-03-24T12:01:56.227Z,55.05
2019-03-24T12:04:24.877Z,49.67
2019-03-24T12:06:53.528Z,50.15
2019-03-24T12:09:22.091Z,50.17
2019-03-24T12:11:50.721Z,48.40
2019-03-24T12:14:20.289Z,48.05
2019-03-24T12:16:48.845Z,46.42
2019-03-24T12:19:17.373Z,49.95
2019-03-24T12:21:47.461Z,48.60
2019-03-24T12:24:16.090Z,47.70
2019-03-24T12:26:44.679Z,48.48
2019-03-24T12:29:13.308Z,46.92
2019-03-24T12:31:41.910Z,51.02
2019-03-24T12:34:10.481Z,45.50
2019-03-24T12:36:39.124Z,43.65
2019-03-24T12:39:07.948Z,40.83
2019-03-24T12:41:36.509Z,41.80
2019-03-24T12:44:05.159Z,43.55
2019-03-24T12:46:33.724Z,42.27
2019-03-24T12:49:02.280Z,40.85
2019-03-24T12:51:30.877Z,43.40
2019-03-24T12:53:59.448Z,39.75
2019-03-24T12:56:28.050Z,39.33
2019-03-24T12:58:56.699Z,37.35
2019-03-24T13:01:25.339Z,42.73
2019-03-24T13:03:54.064Z,43.92
2019-03-24T13:06:22.644Z,42.08
2019-03-24T13:08:51.180Z,43.63
2019-03-24T13:11:19.736Z,42.13
2019-03-24T13:13:48.342Z,42.90
2019-03-24T13:16:16.989Z,41.35
2019-03-24T13:18:45.637Z,40.05
2019-03-24T13:21:14.302Z,41.02
2019-03-24T13:23:42.891Z,44.58
2019-03-24T13:26:11.465Z,46.23
2019-03-24T13:28:41.116Z,40.75
2019-03-24T13:31:09.746Z,42.30
2019-03-24T13:33:38.256Z,53.90
2019-03-24T13:36:12.040Z,48.78
2019-03-24T13:38:40.622Z,56.30
2019-03-24T13:41:09.253Z,57.27
2019-03-24T13:43:37.825Z,45.10
2019-03-24T13:46:07.310Z,42.88
2019-03-24T13:48:35.979Z,42.88
2019-03-24T13:51:04.715Z,41.85
2019-03-24T13:53:33.356Z,41.05
2019-03-24T13:56:02.066Z,43.02
2019-03-24T13:58:30.655Z,42.10
2019-03-24T14:00:59.287Z,43.25
2019-03-24T14:03:30.102Z,44.05
2019-03-24T14:05:58.735Z,43.70
2019-03-24T14:08:27.224Z,44.42
2019-03-24T14:10:55.836Z,46.15
2019-03-24T14:13:24.494Z,49.27
2019-03-24T14:15:53.230Z,44.33
2019-03-24T14:18:21.857Z,48.68
2019-03-24T14:20:50.433Z,44.70
2019-03-24T14:23:19.227Z,45.80
2019-03-24T14:25:47.888Z,48.75
2019-03-24T14:28:16.641Z,46.92
2019-03-24T14:30:46.691Z,46.15
2019-03-24T14:33:15.506Z,46.63
2019-03-24T14:35:44.547Z,51.40
2019-03-24T14:38:13.258Z,45.80
2019-03-24T14:40:41.963Z,42.90
2019-03-24T14:43:12.580Z,45.52
2019-03-24T14:45:41.054Z,45.38
2019-03-24T14:48:09.779Z,45.40
2019-03-24T14:50:38.509Z,46.37
2019-03-24T14:53:07.082Z,45.98
2019-03-24T14:55:35.752Z,46.08
2019-03-24T14:58:04.770Z,47.43
2019-03-24T15:00:38.151Z,46.55
2019-03-24T15:03:07.206Z,48.40
2019-03-24T15:05:36.051Z,49.30
2019-03-24T15:08:05.190Z,45.58
2019-03-24T15:10:34.060Z,46.50
2019-03-24T15:13:02.772Z,49.58
2019-03-24T15:15:31.340Z,42.62
2019-03-24T15:17:59.944Z,47.35
2019-03-24T15:20:28.507Z,49.13
2019-03-24T15:22:57.176Z,47.23
2019-03-24T15:25:26.154Z,45.80
2019-03-24T15:27:54.821Z,44.30
2019-03-24T15:30:23.480Z,46.53
2019-03-24T15:32:53.515Z,41.65
2019-03-24T15:35:22.377Z,43.85
2019-03-24T15:37:50.942Z,41.42
2019-03-24T15:40:19.659Z,37.25
2019-03-24T15:42:48.320Z,39.92
2019-03-24T15:45:17.227Z,38.55
2019-03-24T15:47:45.828Z,44.03
2019-03-24T15:50:14.884Z,42.03
2019-03-24T15:52:43.441Z,42.95
2019-03-24T15:55:12.261Z,40.25
2019-03-24T15:57:40.893Z,47.08
2019-03-24T16:00:10.900Z,44.63
2019-03-24T16:02:39.716Z,43.85
2019-03-24T16:05:08.531Z,40.08
2019-03-24T16:07:37.320Z,37.08
2019-03-24T16:10:07.272Z,33.83
2019-03-24T16:12:36.166Z,34.95
2019-03-24T16:15:07.875Z,29.02
2019-03-24T16:17:37.049Z,32.90
2019-03-24T16:20:09.515Z,28.87
2019-03-24T16:22:38.079Z,27.20
2019-03-24T16:25:08.151Z,31.25
2019-03-24T16:27:36.865Z,27.27
2019-03-24T16:30:10.359Z,30.15
2019-03-24T16:32:38.943Z,29.12
2019-03-24T16:35:07.849Z,33.50
2019-03-24T16:37:36.553Z,30.52
2019-03-24T16:40:09.659Z,30.80
2019-03-24T16:42:38.229Z,30.43
2019-03-24T16:45:07.275Z,28.55
2019-03-24T16:47:35.851Z,30.15
2019-03-24T16:50:06.760Z,34.43
2019-03-24T16:52:35.344Z,34.10
2019-03-24T16:55:06.172Z,30.77
2019-03-24T16:57:34.820Z,28.02
2019-03-24T17:00:04.823Z,29.40
2019-03-24T17:02:34.493Z,30.08
2019-03-24T17:05:03.902Z,33.13
2019-03-24T17:07:32.569Z,31.95
2019-03-24T17:10:01.090Z,33.48
2019-03-24T17:12:31.449Z,30.97
2019-03-24T17:15:21.079Z,34.30
2019-03-24T17:17:49.713Z,29.20
2019-03-24T17:20:18.292Z,28.50
2019-03-24T17:22:46.921Z,30.17
2019-03-24T17:25:15.658Z,26.87
2019-03-24T17:27:45.738Z,26.48
2019-03-24T17:30:14.589Z,28.20
2019-03-24T17:32:44.865Z,30.17
2019-03-24T17:35:13.756Z,25.97
2019-03-24T17:37:42.466Z,26.05
2019-03-24T17:40:12.585Z,23.73
2019-03-24T17:42:41.319Z,26.68
2019-03-24T17:45:11.345Z,31.25
2019-03-24T17:47:40.255Z,29.12
2019-03-24T17:50:12.091Z,28.52
2019-03-24T17:55:09.534Z,29.40
2019-03-24T17:57:38.252Z,27.07
2019-03-24T18:00:09.820Z,28.23
2019-03-24T18:05:07.843Z,28.60
2019-03-24T18:07:37.705Z,27.65
2019-03-24T18:10:08.495Z,27.27
2019-03-24T18:12:38.847Z,28.77
2019-03-24T18:15:10.091Z,26.73
2019-03-24T18:17:38.677Z,27.37
2019-03-24T18:20:08.792Z,30.17
2019-03-24T18:22:37.442Z,27.30
2019-03-24T18:25:07.951Z,27.62
2019-03-24T18:27:36.449Z,30.52
2019-03-24T18:30:07.375Z,27.52
2019-03-24T18:32:36.042Z,27.50
2019-03-24T18:35:07.218Z,28.00
2019-03-24T18:37:35.778Z,30.50
2019-03-24T18:40:07.452Z,30.15
2019-03-24T18:45:05.609Z,26.25
2019-03-24T18:47:34.133Z,29.77
2019-03-24T18:50:02.629Z,28.25
2019-03-24T18:52:31.206Z,30.10
2019-03-24T18:54:59.769Z,29.87
2019-03-24T18:57:28.347Z,27.48
2019-03-24T18:59:57.050Z,32.30
2019-03-24T19:02:25.677Z,27.80
2019-03-24T19:04:54.380Z,28.27
2019-03-24T19:07:23.037Z,29.82
2019-03-24T19:09:51.614Z,30.25
2019-03-24T19:12:20.221Z,30.43
2019-03-24T19:14:48.756Z,32.00
2019-03-24T19:17:18.830Z,29.90
2019-03-24T19:19:47.429Z,29.77
2019-03-24T19:22:16.056Z,28.05
2019-03-24T19:24:44.645Z,29.57
2019-03-24T19:27:13.283Z,28.90
2019-03-24T19:29:41.957Z,28.32
2019-03-24T19:32:10.609Z,25.27
2019-03-24T19:34:39.251Z,23.12
2019-03-24T19:37:07.989Z,22.35
2019-03-24T19:39:36.894Z,23.73
2019-03-24T19:42:05.599Z,24.75
2019-03-24T19:44:34.190Z,23.27
2019-03-24T19:47:02.838Z,19.50
2019-03-24T19:49:31.435Z,24.80
2019-03-24T19:52:00.143Z,18.90
2019-03-24T19:54:28.702Z,18.52
2019-03-24T19:56:57.356Z,19.32
2019-03-24T19:59:26.888Z,18.90
2019-03-24T20:01:55.493Z,21.75
2019-03-24T20:04:23.985Z,17.00
2019-03-24T20:06:52.558Z,17.75
2019-03-24T20:09:21.138Z,18.40
2019-03-24T20:11:49.714Z,19.98
2019-03-24T20:14:18.521Z,16.27
2019-03-24T20:16:47.101Z,15.55
2019-03-24T20:19:15.718Z,15.68
2019-03-24T20:21:45.249Z,17.55
2019-03-24T20:24:13.836Z,18.35
2019-03-24T20:26:42.366Z,16.95
2019-03-24T20:29:11.013Z,20.27
2019-03-24T20:31:39.594Z,16.05
2019-03-24T20:34:08.142Z,16.65
2019-03-24T20:36:36.759Z,20.12
2019-03-24T20:39:08.458Z,15.38
2019-03-24T20:44:04.991Z,17.27
2019-03-24T20:46:33.679Z,17.10
2019-03-24T20:49:02.235Z,15.23
2019-03-24T20:51:30.960Z,16.65
2019-03-24T20:53:59.528Z,17.60
2019-03-24T20:56:28.095Z,15.40
2019-03-24T20:58:56.711Z,16.00
2019-03-24T21:01:25.950Z,15.80
2019-03-24T21:03:54.549Z,16.73
2019-03-24T21:06:23.116Z,13.62
2019-03-24T21:08:51.683Z,13.53
2019-03-24T21:11:20.408Z,13.65
2019-03-24T21:13:49.044Z,13.90
2019-03-24T21:16:17.714Z,14.10
2019-03-24T21:18:46.344Z,18.02
2019-03-24T21:21:14.909Z,18.02
2019-03-24T21:23:46.182Z,18.07
2019-03-24T21:26:14.780Z,18.77
2019-03-24T21:28:43.304Z,15.30
2019-03-24T21:31:11.856Z,16.85
2019-03-24T21:33:40.485Z,16.50
2019-03-24T21:36:09.231Z,17.48
2019-03-24T21:38:37.800Z,15.98
2019-03-24T21:41:06.844Z,16.90
2019-03-24T21:43:35.495Z,14.87
2019-03-24T21:46:04.177Z,17.48
2019-03-24T21:48:32.781Z,15.00
2019-03-24T21:51:01.387Z,16.50
2019-03-24T21:53:40.089Z,14.50
2019-03-24T21:56:00.124Z,15.18
2019-03-24T21:58:28.762Z,17.55
2019-03-24T22:00:57.270Z,16.37
2019-03-24T22:03:25.836Z,14.90
2019-03-24T22:05:54.441Z,12.30
2019-03-24T22:08:23.002Z,16.42
2019-03-24T22:10:51.520Z,15.20
2019-03-24T22:13:20.032Z,15.05
2019-03-24T22:15:48.648Z,15.28
2019-03-24T22:18:17.241Z,16.73
2019-03-24T22:20:49.177Z,15.28
2019-03-24T22:23:15.994Z,16.00
2019-03-24T22:25:44.571Z,15.20
2019-03-24T22:28:13.144Z,16.80
2019-03-24T22:30:41.720Z,18.62
2019-03-24T22:33:10.211Z,16.05
2019-03-24T22:35:38.771Z,17.32
2019-03-24T22:38:07.417Z,11.88
2019-03-24T22:40:35.954Z,14.85
2019-03-24T22:43:04.768Z,14.13
2019-03-24T22:45:33.319Z,13.83
2019-03-24T22:48:01.875Z,11.75
2019-03-24T22:50:30.618Z,13.25
2019-03-24T22:52:59.138Z,12.25
2019-03-24T22:55:27.654Z,14.28
2019-03-24T22:57:56.352Z,14.07
2019-03-24T23:00:42.456Z,11.38
2019-03-24T23:03:11.589Z,11.68
2019-03-24T23:05:40.209Z,18.57
2019-03-24T23:08:08.731Z,13.28
2019-03-24T23:10:37.494Z,10.98
2019-03-24T23:13:06.349Z,13.43
2019-03-24T23:15:34.908Z,14.75
2019-03-24T23:18:03.679Z,12.33
2019-03-24T23:20:32.304Z,14.00
2019-03-24T23:23:00.878Z,11.85
2019-03-24T23:25:29.453Z,12.40
2019-03-24T23:27:58.092Z,13.78
2019-03-24T23:30:26.804Z,12.15
2019-03-24T23:32:55.373Z,11.30
2019-03-24T23:35:23.869Z,13.98
2019-03-24T23:37:52.450Z,12.30
2019-03-24T23:40:21.070Z,11.45
2019-03-24T23:42:49.761Z,10.93
2019-03-24T23:45:18.407Z,11.68
2019-03-24T23:47:46.949Z,11.57
2019-03-24T23:50:16.279Z,15.32
2019-03-24T23:52:44.843Z,12.70
2019-03-24T23:55:13.533Z,12.93
2019-03-24T23:57:42.122Z,12.82
